Cameron, Texas
Current Conditions -  °F | °C
As of 10:55 PM on Monday 22 Dec 2014 (Local Time) from KT35 Reporting Station
Clear Clear  
Wind Chill: 56°   Ceiling: Unl
Heat Index: 56°   Visibility: 10mi
Dew Point: 46°   Wind: 5mph
Humidity: 68%   Direction: 100°E
Pressure: 29.67"   Gusts: NA
Location:  30.85°N, 96.98°W
Report Text: KT35 230455Z AUTO 10004KT 10SM CLR 13/08 A2967 RMK AO2 T01340075
Loading
Personal Weather Stations






























Interactive Weather Map New forecast layout! Learn more

10-Day Weather Forecast

Advertisements
Track Severe Weather on mobile